Terminal Aerodrome Forecast
Issued by NWS

Home | Current Version | Previous Version | Text Only | Print | Product List | Glossary On
Versions: 1 2 3 4 5 6 7 8 9 10 11 12 13 14
000
FTUS46 KSEW 241700
TAFOLM
TAF
KOLM 241724Z 2418/2518 19013KT P6SM SCT018 BKN035
     FM250000 24010G16KT P6SM SCT025 BKN050
     FM250800 19004KT P6SM OVC015=

USA.gov is the U.S. government's official web portal to all federal, state and local government web resources and services.